createdAt,value
2022-11-24T17:01:58.147Z,132.67
2022-11-24T17:03:33.694Z,131.00
2022-11-24T17:05:05.802Z,128.67
2022-11-24T17:06:37.642Z,128.25
2022-11-24T17:08:09.302Z,108.75
2022-11-24T17:09:41.060Z,109.75
2022-11-24T17:11:23.566Z,105.50
2022-11-24T17:12:55.400Z,105.25
2022-11-24T17:14:27.347Z,108.00
2022-11-24T17:15:59.072Z,105.50
2022-11-24T17:17:30.813Z,99.75
2022-11-24T17:19:02.664Z,95.75
2022-11-24T17:20:36.098Z,110.00
2022-11-24T17:22:07.935Z,103.50
2022-11-24T17:23:39.714Z,100.75
2022-11-24T17:25:11.544Z,99.25
2022-11-24T17:26:48.779Z,105.25
2022-11-24T17:28:20.955Z,102.00
2022-11-24T17:29:52.695Z,103.75
2022-11-24T17:31:28.770Z,102.25
2022-11-24T17:33:00.579Z,99.75
2022-11-24T17:34:32.694Z,103.00
2022-11-24T17:36:05.116Z,101.75
2022-11-24T17:37:37.086Z,100.25
2022-11-24T17:39:09.140Z,99.50
2022-11-24T17:40:40.828Z,97.00
2022-11-24T17:42:12.511Z,100.25
2022-11-24T17:43:44.312Z,97.00
2022-11-24T17:45:16.028Z,97.00
2022-11-24T17:46:47.665Z,88.50
2022-11-24T17:48:19.364Z,99.50
2022-11-24T17:49:51.031Z,105.25
2022-11-24T17:51:23.944Z,101.00
2022-11-24T17:52:55.670Z,106.50
2022-11-24T17:56:23.691Z,101.25
2022-11-24T17:57:56.103Z,105.50
2022-11-24T17:59:27.810Z,104.25
2022-11-24T18:00:59.765Z,103.75
2022-11-24T18:02:31.701Z,102.50
2022-11-24T18:04:03.967Z,98.25
2022-11-24T18:05:36.276Z,101.25
2022-11-24T18:07:08.001Z,107.50
2022-11-24T18:08:41.426Z,105.75
2022-11-24T18:10:13.210Z,101.00
2022-11-24T18:11:45.104Z,106.50
2022-11-24T18:13:34.144Z,106.75
2022-11-24T18:15:09.981Z,97.25
2022-11-24T18:16:41.728Z,104.25
2022-11-24T18:18:14.023Z,99.50
2022-11-24T18:19:45.876Z,93.75
2022-11-24T18:21:17.672Z,94.25
2022-11-24T18:23:05.004Z,98.25
2022-11-24T18:24:37.738Z,86.50
2022-11-24T18:26:12.811Z,105.25
2022-11-24T18:27:44.993Z,111.50
2022-11-24T18:29:17.466Z,107.00
2022-11-24T18:30:49.492Z,91.25
2022-11-24T18:32:21.168Z,90.75
2022-11-24T18:33:52.905Z,81.50
2022-11-24T18:35:24.639Z,79.00
2022-11-24T18:36:56.345Z,78.00
2022-11-24T18:38:28.472Z,81.50
2022-11-24T18:40:00.239Z,86.00
2022-11-24T18:41:31.997Z,71.25
2022-11-24T18:43:03.658Z,91.00
2022-11-24T18:44:36.380Z,91.25
2022-11-24T18:46:10.872Z,100.25
2022-11-24T18:47:42.723Z,93.75
2022-11-24T18:49:14.396Z,97.00
2022-11-24T18:50:50.648Z,97.25
2022-11-24T18:52:22.412Z,97.00
2022-11-24T18:53:54.672Z,92.75
2022-11-24T18:55:26.341Z,95.00
2022-11-24T18:57:03.118Z,92.50
2022-11-24T18:58:35.569Z,100.50
2022-11-24T19:00:07.869Z,80.25
2022-11-24T19:01:39.660Z,98.50
2022-11-24T19:03:11.360Z,87.75
2022-11-24T19:04:43.095Z,100.25
2022-11-24T19:06:23.066Z,99.50
2022-11-24T19:07:55.801Z,119.50
2022-11-24T19:09:27.637Z,104.25
2022-11-24T19:10:59.616Z,114.50
2022-11-24T19:12:31.354Z,115.50
2022-11-24T19:14:04.441Z,109.50
2022-11-24T19:15:36.142Z,119.75
2022-11-24T19:17:07.830Z,113.00
2022-11-24T19:18:39.526Z,115.00
2022-11-24T19:20:11.761Z,110.75
2022-11-24T19:21:43.646Z,111.25
2022-11-24T19:23:18.245Z,106.75
2022-11-24T19:24:50.840Z,111.50
2022-11-24T19:26:22.628Z,105.25
2022-11-24T19:27:54.317Z,107.50
2022-11-24T19:29:25.985Z,111.25
2022-11-24T19:31:08.225Z,116.75
2022-11-24T19:32:39.873Z,113.50
2022-11-24T19:34:11.526Z,115.25
2022-11-24T19:35:43.216Z,121.75
2022-11-24T19:37:15.104Z,120.75
2022-11-24T19:38:54.078Z,118.75
2022-11-24T19:40:25.797Z,124.25
2022-11-24T19:41:57.575Z,127.50
2022-11-24T19:43:29.341Z,117.25
2022-11-24T19:45:01.051Z,121.00
2022-11-24T19:46:33.530Z,120.75
2022-11-24T19:48:05.447Z,110.50
2022-11-24T19:49:37.407Z,112.75
2022-11-24T19:51:11.774Z,114.25
2022-11-24T19:52:43.485Z,111.50
2022-11-24T19:54:15.330Z,112.00
2022-11-24T19:55:47.065Z,107.25
2022-11-24T19:57:18.755Z,123.50
2022-11-24T19:58:50.668Z,118.50
2022-11-24T20:00:22.431Z,119.25
2022-11-24T20:01:54.536Z,114.50
2022-11-24T20:03:26.487Z,120.75
2022-11-24T20:04:58.302Z,122.75
2022-11-24T20:06:36.783Z,109.25
2022-11-24T20:08:08.790Z,116.75
2022-11-24T20:09:40.445Z,113.25
2022-11-24T20:11:15.983Z,115.00
2022-11-24T20:12:48.077Z,108.50
2022-11-24T20:14:20.265Z,113.75
2022-11-24T20:15:51.913Z,114.75
2022-11-24T20:17:23.751Z,101.00
2022-11-24T20:19:14.429Z,104.25
2022-11-24T20:20:46.313Z,108.75
2022-11-24T20:22:17.942Z,99.00
2022-11-24T20:23:55.273Z,100.25
2022-11-24T20:25:26.934Z,119.75
2022-11-24T20:26:58.990Z,113.25
2022-11-24T20:28:31.112Z,106.25
2022-11-24T20:30:02.968Z,107.50
2022-11-24T20:31:39.118Z,108.50
2022-11-24T20:33:10.907Z,100.00
2022-11-24T20:34:42.624Z,95.75
2022-11-24T20:36:19.273Z,134.67
2022-11-24T20:37:50.907Z,165.75
2022-11-24T20:39:26.345Z,177.00
2022-11-24T20:41:09.435Z,168.25
2022-11-24T20:42:41.304Z,164.50
2022-11-24T20:44:15.437Z,157.00
2022-11-24T20:45:47.248Z,140.33
2022-11-24T20:47:19.033Z,141.33
2022-11-24T20:48:50.899Z,131.00
2022-11-24T20:50:22.613Z,127.33
2022-11-24T20:51:55.066Z,124.00
2022-11-24T20:53:26.719Z,116.75
2022-11-24T20:55:00.383Z,111.00
2022-11-24T20:56:33.988Z,99.50
2022-11-24T20:58:05.687Z,92.75
2022-11-24T20:59:37.343Z,93.50
2022-11-24T21:01:13.279Z,89.50
2022-11-24T21:02:45.174Z,79.25
2022-11-24T21:04:19.473Z,79.25
2022-11-24T21:05:55.487Z,74.00
2022-11-24T21:07:27.132Z,69.20
2022-11-24T21:09:03.423Z,63.25
2022-11-24T21:10:35.546Z,63.50
2022-11-24T21:12:07.235Z,58.00
2022-11-24T21:13:40.191Z,56.75
2022-11-24T21:15:11.868Z,52.00
2022-11-24T21:16:43.753Z,48.50
2022-11-24T21:18:15.466Z,47.25
2022-11-24T21:19:47.387Z,47.25
2022-11-24T21:21:19.960Z,47.25
2022-11-24T21:22:51.574Z,88.50
2022-11-24T21:24:23.340Z,142.33
2022-11-24T21:26:05.400Z,135.67
2022-11-24T21:27:37.391Z,134.67
2022-11-24T21:29:10.274Z,129.33
2022-11-24T21:30:42.022Z,122.00
2022-11-24T21:32:13.719Z,108.75
2022-11-24T21:33:49.341Z,113.25
2022-11-24T21:35:21.020Z,103.75
2022-11-24T21:36:52.722Z,127.50
2022-11-24T21:38:24.421Z,171.25
2022-11-24T21:39:56.241Z,182.50
2022-11-24T21:41:28.686Z,177.00
2022-11-24T21:43:00.398Z,163.50
2022-11-24T21:44:32.287Z,159.00
2022-11-24T21:46:08.118Z,145.33
2022-11-24T21:47:39.843Z,144.00
2022-11-24T21:49:13.164Z,130.33
2022-11-24T21:50:45.059Z,138.33
2022-11-24T21:52:16.720Z,144.33
2022-11-24T21:53:48.509Z,132.00
2022-11-24T21:55:20.192Z,108.00
2022-11-24T21:56:53.376Z,100.00
2022-11-24T21:58:25.361Z,98.00
2022-11-24T21:59:57.060Z,91.75
2022-11-24T22:01:29.024Z,83.75
2022-11-24T22:03:00.825Z,78.25
2022-11-24T22:04:32.660Z,78.25
2022-11-24T22:06:04.644Z,74.25
2022-11-24T22:07:36.532Z,78.00
2022-11-24T22:09:08.298Z,73.25
2022-11-24T22:10:40.036Z,82.50
2022-11-24T22:12:11.677Z,79.75
2022-11-24T22:13:43.822Z,86.75
2022-11-24T22:15:15.527Z,84.25
2022-11-24T22:16:47.273Z,77.50
2022-11-24T22:18:18.955Z,80.25
2022-11-24T22:19:51.104Z,75.00
2022-11-24T22:21:24.334Z,71.75
2022-11-24T22:22:56.194Z,65.80
2022-11-24T22:24:27.868Z,76.50
2022-11-24T22:26:03.983Z,78.00
2022-11-24T22:27:35.606Z,71.50
2022-11-24T22:29:08.079Z,73.75
2022-11-24T22:30:39.816Z,81.50
2022-11-24T22:32:11.673Z,93.75
2022-11-24T22:33:46.056Z,95.25
2022-11-24T22:35:17.691Z,97.25
2022-11-24T22:36:49.336Z,104.25
2022-11-24T22:38:21.114Z,101.75
2022-11-24T22:39:52.781Z,108.00
2022-11-24T22:41:24.583Z,115.75
2022-11-24T22:42:57.879Z,110.50
2022-11-24T22:44:29.504Z,113.00
2022-11-24T22:46:14.670Z,112.50
2022-11-24T22:47:46.727Z,107.00
2022-11-24T22:49:18.415Z,113.25
2022-11-24T22:50:50.075Z,114.75
2022-11-24T22:52:21.741Z,117.25
2022-11-24T22:53:54.971Z,164.33
2022-11-24T22:55:26.718Z,186.50
2022-11-24T22:56:58.838Z,127.33
2022-11-24T22:58:32.230Z,150.33
2022-11-24T23:00:04.818Z,131.33
2022-11-24T23:01:36.581Z,116.75
2022-11-24T23:03:08.403Z,97.75
2022-11-24T23:04:40.167Z,96.25
2022-11-24T23:06:13.708Z,107.00
2022-11-24T23:07:45.571Z,106.75
2022-11-24T23:09:17.299Z,105.75
2022-11-24T23:10:49.006Z,109.50
2022-11-24T23:12:20.664Z,113.50
2022-11-24T23:13:53.424Z,113.00
2022-11-24T23:15:25.119Z,111.75
2022-11-24T23:16:56.837Z,111.25
2022-11-24T23:18:28.701Z,111.00
2022-11-24T23:20:00.406Z,116.75
2022-11-24T23:21:33.761Z,113.00
2022-11-24T23:23:05.473Z,108.75
2022-11-24T23:24:38.288Z,107.00
2022-11-24T23:26:11.362Z,105.75
2022-11-24T23:27:43.095Z,110.50
2022-11-24T23:29:14.845Z,112.75
2022-11-24T23:30:46.634Z,109.75
2022-11-24T23:32:18.348Z,112.00
2022-11-24T23:33:50.342Z,111.50
